logo
Search for airport 
image banner adimage banner adimage banner ad
image banner ad

FABP - Black Rock

Located in Santoy, South Africa

ICAO - FABP, IATA -

Data provided by Airmate  

General information

Coordinates: S27°7'46" E22°50'44"
Elevation is 3441 feet MSL.
 
View others Airports in Northern Cape

Operational data

Special qualification required
Current time UTC:
Current local time:
Weather at : - ( 0 km )
METAR: KI69 230436Z AUTO 19005KT 10SM CLR 10/00 A3009 RMK AO1 T01041002
View NOTAMs / SUP AIP / TFR affecting this airport [VIEW]
Communications frequencies: [VIEW]

Runways:

RWY identifierQFULength (ft)Width (ft)SurfaceLDA (ft)
1637°492139ASPH
34217°492139ASPH

Airport contact information

Address: Santoy South Africa

Satellite view of FABP